Flight Track Log - Related Links

Times and Time Zones

All times are in EDT time to prevent confusion due to time zone crossing. See the FLG4208 flight status page for this flight to view local times or setup timezone preferences in your user account.


Time Position Orientation Groundspeed Altitude Reporting Facility
EDT Latitude Longitude Course Direction KTS MPH feet Rate Location/Type
Wed 12:11:18 PM 42.2939 -85.5039 44° Northeast 209 241 4,900  Level Chicago Center
Wed 12:12:20 PM 42.2594 -85.3958 113° Southeast 275 316 8,100 2,942 Climbing Chicago Center
Wed 12:13:02 PM 42.2392 -85.3322 113° Southeast 286 329 10,000 1,706 Climbing Cleveland Center
Wed 12:14:02 PM 42.2061 -85.2231 112° Southeast 286 329 11,000 550 Climbing Cleveland Center
Wed 12:15:02 PM 42.1694 -85.0969 111° Southeast 323 372 11,100 50 Climbing Cleveland Center
Wed 12:16:02 PM 42.1283 -84.9708 114° Southeast 349 402 11,100 200 Level Cleveland Center
Wed 12:17:02 PM 42.0894 -84.8394 112° Southeast 363 418 11,500 450 Climbing Cleveland Center
Wed 12:18:02 PM 42.0503 -84.7167 113° Southeast 363 418 12,000 250 Climbing Cleveland Center
Wed 12:19:02 PM 42.0089 -84.5908 114° Southeast 363 418 12,000  Level Cleveland Center
Wed 12:20:02 PM 41.9711 -84.4711 113° Southeast 358 412 12,000  Level Cleveland Center
Wed 12:21:02 PM 41.9292 -84.3542 116° Southeast 358 412 12,000  Level Cleveland Center
Wed 12:22:02 PM 41.8872 -84.2344 115° Southeast 343 395 12,000  Level Cleveland Center
Wed 12:22:28 PM 41.8758 -84.1947 111° Southeast 310 357 12,000  Level Cleveland Center
Wed 12:23:02 PM 41.8531 -84.1294 115° Southeast 324 373 12,000  Level Cleveland Center
Wed 12:24:02 PM 41.8397 -84.0172 99° East 299 344 12,000 -400 Level Cleveland Center
Wed 12:25:02 PM 41.9083 -83.9539 34° Northeast 242 278 11,200 -1,100 Descending Cleveland Center
Wed 12:26:02 PM 41.9825 -83.9103 24° Northeast 247 284 9,800 -1,350 Descending Cleveland Center
Wed 12:27:02 PM 42.0219 -83.8425 52° Northeast 236 272 8,500 -1,400 Descending Cleveland Center
Wed 12:28:02 PM 41.9931 -83.7600 115° Southeast 197 227 7,000 -1,400 Descending Cleveland Center
Wed 12:29:02 PM 41.9619 -83.6800 118° Southeast 203 234 5,700 -923 Descending Cleveland Center
Wed 12:30:12 PM 41.9367 -83.6092 116° Southeast 185 213 5,000 -350 Descending Cleveland Center
Wed 12:31:02 PM 41.9589 -83.5628 57° Northeast 162 186 5,000  Level Cleveland Center
Wed 12:32:02 PM 42.0014 -83.5256 33° Northeast 149 171 5,000 -313 Level Cleveland Center
Wed 12:33:16 PM 42.0586 -83.4917 24° Northeast 167 192 4,300 -448 Descending Cleveland Center
Wed 12:34:16 PM 42.0958 -83.5047 345° North 184 212 4,000 -148 Descending Cleveland Center
Wed 12:35:18 PM 42.1108 -83.5697 287° West 196 226 4,000 279 Level Cleveland Center
Wed 12:36:25 PM 42.0636 -83.6236 220° Southwest 204 235 4,600 472 Climbing Cleveland Center
Wed 12:37:25 PM 42.0167 -83.6633 212° Southwest 198 228 5,000 207 Climbing Cleveland Center
Wed 12:38:21 PM 41.9719 -83.6972 209° Southwest 198 228 5,000  Level Cleveland Center
Wed 12:39:22 PM 41.9356 -83.6536 138° Southeast 201 231 5,000  Level Cleveland Center
Wed 12:40:28 PM 41.9436 -83.5844 81° East 193 222 5,000  Level Cleveland Center

Login

Don't have an account? Register now (free) for customized features, flight alerts, and more!